sensor_id;sensor_type;location;lat;lon;timestamp;temperature;humidity
69006;SHT31;56061;51.748;19.620;2022-10-28T00:01:11;7.73;85.50
69006;SHT31;56061;51.748;19.620;2022-10-28T00:03:48;7.62;85.63
69006;SHT31;56061;51.748;19.620;2022-10-28T00:06:25;7.53;85.71
69006;SHT31;56061;51.748;19.620;2022-10-28T00:08:55;7.47;85.87
69006;SHT31;56061;51.748;19.620;2022-10-28T00:11:24;7.43;85.98
69006;SHT31;56061;51.748;19.620;2022-10-28T00:13:57;7.38;86.00
69006;SHT31;56061;51.748;19.620;2022-10-28T00:16:27;7.34;86.04
69006;SHT31;56061;51.748;19.620;2022-10-28T00:18:57;7.32;86.13
69006;SHT31;56061;51.748;19.620;2022-10-28T00:21:26;7.27;86.31
69006;SHT31;56061;51.748;19.620;2022-10-28T00:23:55;7.22;86.26
69006;SHT31;56061;51.748;19.620;2022-10-28T00:26:23;7.18;86.35
69006;SHT31;56061;51.748;19.620;2022-10-28T00:29:00;7.15;86.35
69006;SHT31;56061;51.748;19.620;2022-10-28T00:31:39;7.11;86.38
69006;SHT31;56061;51.748;19.620;2022-10-28T00:34:08;7.08;86.69
69006;SHT31;56061;51.748;19.620;2022-10-28T00:36:42;7.09;87.01
69006;SHT31;56061;51.748;19.620;2022-10-28T00:39:14;7.09;87.11
69006;SHT31;56061;51.748;19.620;2022-10-28T00:41:45;7.11;87.18
69006;SHT31;56061;51.748;19.620;2022-10-28T00:44:47;7.11;87.08
69006;SHT31;56061;51.748;19.620;2022-10-28T00:49:55;7.03;86.99
69006;SHT31;56061;51.748;19.620;2022-10-28T00:52:28;6.98;87.04
69006;SHT31;56061;51.748;19.620;2022-10-28T00:54:58;6.95;87.25
69006;SHT31;56061;51.748;19.620;2022-10-28T00:57:31;6.93;87.36
69006;SHT31;56061;51.748;19.620;2022-10-28T01:00:04;6.92;87.28
69006;SHT31;56061;51.748;19.620;2022-10-28T01:02:33;6.91;87.25
69006;SHT31;56061;51.748;19.620;2022-10-28T01:05:10;6.91;87.04
69006;SHT31;56061;51.748;19.620;2022-10-28T01:07:42;6.94;87.11
69006;SHT31;56061;51.748;19.620;2022-10-28T01:10:09;6.98;87.35
69006;SHT31;56061;51.748;19.620;2022-10-28T01:12:57;7.08;87.72
69006;SHT31;56061;51.748;19.620;2022-10-28T01:22:05;7.16;88.06
69006;SHT31;56061;51.748;19.620;2022-10-28T01:30:36;7.16;87.54
69006;SHT31;56061;51.748;19.620;2022-10-28T01:36:15;7.11;87.70
69006;SHT31;56061;51.748;19.620;2022-10-28T01:39:05;7.07;87.70
69006;SHT31;56061;51.748;19.620;2022-10-28T01:41:47;7.01;87.71
69006;SHT31;56061;51.748;19.620;2022-10-28T01:47:24;6.94;87.63
69006;SHT31;56061;51.748;19.620;2022-10-28T01:50:04;6.95;87.71
69006;SHT31;56061;51.748;19.620;2022-10-28T01:52:48;6.97;87.74
69006;SHT31;56061;51.748;19.620;2022-10-28T01:55:22;7.01;87.60
69006;SHT31;56061;51.748;19.620;2022-10-28T01:57:54;7.01;87.40
69006;SHT31;56061;51.748;19.620;2022-10-28T02:00:24;7.01;87.41
69006;SHT31;56061;51.748;19.620;2022-10-28T02:02:52;6.99;87.30
69006;SHT31;56061;51.748;19.620;2022-10-28T02:05:37;6.93;87.22
69006;SHT31;56061;51.748;19.620;2022-10-28T02:16:29;6.74;86.57
69006;SHT31;56061;51.748;19.620;2022-10-28T02:28:02;6.61;86.80
69006;SHT31;56061;51.748;19.620;2022-10-28T02:33:20;6.55;86.80
69006;SHT31;56061;51.748;19.620;2022-10-28T02:35:56;6.56;86.97
69006;SHT31;56061;51.748;19.620;2022-10-28T02:38:33;6.56;87.34
69006;SHT31;56061;51.748;19.620;2022-10-28T02:44:24;6.61;87.28
69006;SHT31;56061;51.748;19.620;2022-10-28T02:47:01;6.61;87.21
69006;SHT31;56061;51.748;19.620;2022-10-28T02:49:35;6.62;87.16
69006;SHT31;56061;51.748;19.620;2022-10-28T02:52:06;6.62;87.08
69006;SHT31;56061;51.748;19.620;2022-10-28T02:54:52;6.61;86.98
69006;SHT31;56061;51.748;19.620;2022-10-28T02:57:22;6.57;86.83
69006;SHT31;56061;51.748;19.620;2022-10-28T02:59:53;6.54;86.58
69006;SHT31;56061;51.748;19.620;2022-10-28T03:02:23;6.50;86.61
69006;SHT31;56061;51.748;19.620;2022-10-28T03:04:51;6.52;87.06
69006;SHT31;56061;51.748;19.620;2022-10-28T03:07:18;6.56;87.45
69006;SHT31;56061;51.748;19.620;2022-10-28T03:09:45;6.57;87.39
69006;SHT31;56061;51.748;19.620;2022-10-28T03:12:11;6.57;87.26
69006;SHT31;56061;51.748;19.620;2022-10-28T03:14:38;6.57;87.14
69006;SHT31;56061;51.748;19.620;2022-10-28T03:17:04;6.56;86.86
69006;SHT31;56061;51.748;19.620;2022-10-28T03:19:32;6.54;86.71
69006;SHT31;56061;51.748;19.620;2022-10-28T03:21:59;6.57;86.93
69006;SHT31;56061;51.748;19.620;2022-10-28T03:24:26;6.58;86.93
69006;SHT31;56061;51.748;19.620;2022-10-28T03:26:52;6.60;86.88
69006;SHT31;56061;51.748;19.620;2022-10-28T03:29:18;6.61;86.48
69006;SHT31;56061;51.748;19.620;2022-10-28T03:31:46;6.58;86.21
69006;SHT31;56061;51.748;19.620;2022-10-28T03:34:12;6.58;86.48
69006;SHT31;56061;51.748;19.620;2022-10-28T03:36:39;6.60;86.71
69006;SHT31;56061;51.748;19.620;2022-10-28T03:39:05;6.60;86.94
69006;SHT31;56061;51.748;19.620;2022-10-28T03:41:32;6.61;86.86
69006;SHT31;56061;51.748;19.620;2022-10-28T03:43:58;6.57;86.63
69006;SHT31;56061;51.748;19.620;2022-10-28T03:46:24;6.56;86.59
69006;SHT31;56061;51.748;19.620;2022-10-28T03:48:51;6.61;86.64
69006;SHT31;56061;51.748;19.620;2022-10-28T03:51:18;6.63;86.28
69006;SHT31;56061;51.748;19.620;2022-10-28T03:53:44;6.63;86.06
69006;SHT31;56061;51.748;19.620;2022-10-28T03:56:11;6.62;85.83
69006;SHT31;56061;51.748;19.620;2022-10-28T03:58:37;6.59;85.79
69006;SHT31;56061;51.748;19.620;2022-10-28T04:01:06;6.55;85.74
69006;SHT31;56061;51.748;19.620;2022-10-28T04:03:33;6.49;85.74
69006;SHT31;56061;51.748;19.620;2022-10-28T04:05:59;6.44;85.76
69006;SHT31;56061;51.748;19.620;2022-10-28T04:08:26;6.41;85.86
69006;SHT31;56061;51.748;19.620;2022-10-28T04:10:52;6.39;85.94
69006;SHT31;56061;51.748;19.620;2022-10-28T04:13:19;6.39;85.93
69006;SHT31;56061;51.748;19.620;2022-10-28T04:15:45;6.39;85.98
69006;SHT31;56061;51.748;19.620;2022-10-28T04:18:12;6.40;85.97
69006;SHT31;56061;51.748;19.620;2022-10-28T04:20:38;6.41;85.87
69006;SHT31;56061;51.748;19.620;2022-10-28T04:23:05;6.41;85.64
69006;SHT31;56061;51.748;19.620;2022-10-28T04:25:31;6.37;85.62
69006;SHT31;56061;51.748;19.620;2022-10-28T04:27:58;6.33;85.67
69006;SHT31;56061;51.748;19.620;2022-10-28T04:30:24;6.29;85.65
69006;SHT31;56061;51.748;19.620;2022-10-28T04:32:51;6.26;85.77
69006;SHT31;56061;51.748;19.620;2022-10-28T04:35:17;6.24;85.87
69006;SHT31;56061;51.748;19.620;2022-10-28T04:37:44;6.23;85.92
69006;SHT31;56061;51.748;19.620;2022-10-28T04:40:10;6.25;85.95
69006;SHT31;56061;51.748;19.620;2022-10-28T04:42:37;6.29;86.14
69006;SHT31;56061;51.748;19.620;2022-10-28T04:45:04;6.33;86.04
69006;SHT31;56061;51.748;19.620;2022-10-28T04:47:31;6.36;85.98
69006;SHT31;56061;51.748;19.620;2022-10-28T04:49:58;6.36;85.89
69006;SHT31;56061;51.748;19.620;2022-10-28T04:52:24;6.34;85.83
69006;SHT31;56061;51.748;19.620;2022-10-28T04:54:51;6.30;85.80
69006;SHT31;56061;51.748;19.620;2022-10-28T04:57:17;6.27;85.86
69006;SHT31;56061;51.748;19.620;2022-10-28T04:59:43;6.24;85.95
69006;SHT31;56061;51.748;19.620;2022-10-28T05:02:11;6.24;86.11
69006;SHT31;56061;51.748;19.620;2022-10-28T05:04:38;6.25;86.25
69006;SHT31;56061;51.748;19.620;2022-10-28T05:07:04;6.28;86.31
69006;SHT31;56061;51.748;19.620;2022-10-28T05:09:32;6.32;86.37
69006;SHT31;56061;51.748;19.620;2022-10-28T05:11:58;6.35;86.42
69006;SHT31;56061;51.748;19.620;2022-10-28T05:14:24;6.39;86.50
69006;SHT31;56061;51.748;19.620;2022-10-28T05:16:51;6.43;86.76
69006;SHT31;56061;51.748;19.620;2022-10-28T05:19:17;6.48;86.98
69006;SHT31;56061;51.748;19.620;2022-10-28T05:21:44;6.55;86.89
69006;SHT31;56061;51.748;19.620;2022-10-28T05:24:10;6.60;86.79
69006;SHT31;56061;51.748;19.620;2022-10-28T05:26:37;6.60;86.99
69006;SHT31;56061;51.748;19.620;2022-10-28T05:29:03;6.60;87.23
69006;SHT31;56061;51.748;19.620;2022-10-28T05:31:30;6.59;87.33
69006;SHT31;56061;51.748;19.620;2022-10-28T05:33:56;6.61;87.49
69006;SHT31;56061;51.748;19.620;2022-10-28T05:36:23;6.62;87.52
69006;SHT31;56061;51.748;19.620;2022-10-28T05:38:49;6.64;87.61
69006;SHT31;56061;51.748;19.620;2022-10-28T05:41:16;6.71;87.94
69006;SHT31;56061;51.748;19.620;2022-10-28T05:43:42;6.79;88.07
69006;SHT31;56061;51.748;19.620;2022-10-28T05:46:09;6.88;88.28
69006;SHT31;56061;51.748;19.620;2022-10-28T05:48:35;6.99;88.44
69006;SHT31;56061;51.748;19.620;2022-10-28T05:51:02;7.10;88.70
69006;SHT31;56061;51.748;19.620;2022-10-28T05:53:28;7.23;89.16
69006;SHT31;56061;51.748;19.620;2022-10-28T05:55:55;7.37;89.27
69006;SHT31;56061;51.748;19.620;2022-10-28T05:58:21;7.49;89.44
69006;SHT31;56061;51.748;19.620;2022-10-28T06:00:48;7.63;89.64
69006;SHT31;56061;51.748;19.620;2022-10-28T06:03:14;7.78;89.75
69006;SHT31;56061;51.748;19.620;2022-10-28T06:05:42;7.93;89.70
69006;SHT31;56061;51.748;19.620;2022-10-28T06:08:10;8.04;89.67
69006;SHT31;56061;51.748;19.620;2022-10-28T06:10:39;8.16;89.74
69006;SHT31;56061;51.748;19.620;2022-10-28T06:13:07;8.28;89.74
69006;SHT31;56061;51.748;19.620;2022-10-28T06:15:34;8.39;89.68
69006;SHT31;56061;51.748;19.620;2022-10-28T06:18:00;8.48;89.64
69006;SHT31;56061;51.748;19.620;2022-10-28T06:20:27;8.55;89.64
69006;SHT31;56061;51.748;19.620;2022-10-28T06:22:53;8.61;89.50
69006;SHT31;56061;51.748;19.620;2022-10-28T06:25:23;8.67;89.53
69006;SHT31;56061;51.748;19.620;2022-10-28T06:27:52;8.75;89.50
69006;SHT31;56061;51.748;19.620;2022-10-28T06:30:24;8.84;89.45
69006;SHT31;56061;51.748;19.620;2022-10-28T06:32:56;8.91;89.35
69006;SHT31;56061;51.748;19.620;2022-10-28T06:35:23;9.00;89.33
69006;SHT31;56061;51.748;19.620;2022-10-28T06:37:55;9.10;89.12
69006;SHT31;56061;51.748;19.620;2022-10-28T06:40:23;9.15;88.94
69006;SHT31;56061;51.748;19.620;2022-10-28T06:42:57;9.18;88.92
69006;SHT31;56061;51.748;19.620;2022-10-28T06:45:26;9.22;88.97
69006;SHT31;56061;51.748;19.620;2022-10-28T06:47:58;9.28;89.06
69006;SHT31;56061;51.748;19.620;2022-10-28T06:50:28;9.35;88.99
69006;SHT31;56061;51.748;19.620;2022-10-28T06:52:56;9.43;89.00
69006;SHT31;56061;51.748;19.620;2022-10-28T06:55:23;9.52;89.00
69006;SHT31;56061;51.748;19.620;2022-10-28T06:57:52;9.61;89.00
69006;SHT31;56061;51.748;19.620;2022-10-28T07:00:19;9.70;89.03
69006;SHT31;56061;51.748;19.620;2022-10-28T07:02:49;9.76;89.03
69006;SHT31;56061;51.748;19.620;2022-10-28T07:05:18;9.79;88.95
69006;SHT31;56061;51.748;19.620;2022-10-28T07:07:45;9.80;89.02
69006;SHT31;56061;51.748;19.620;2022-10-28T07:10:12;9.82;88.98
69006;SHT31;56061;51.748;19.620;2022-10-28T07:12:38;9.85;89.04
69006;SHT31;56061;51.748;19.620;2022-10-28T07:15:05;9.91;89.07
69006;SHT31;56061;51.748;19.620;2022-10-28T07:17:32;9.98;89.20
69006;SHT31;56061;51.748;19.620;2022-10-28T07:19:58;10.06;89.19
69006;SHT31;56061;51.748;19.620;2022-10-28T07:22:25;10.14;89.17
69006;SHT31;56061;51.748;19.620;2022-10-28T07:24:51;10.19;89.03
69006;SHT31;56061;51.748;19.620;2022-10-28T07:27:18;10.24;89.04
69006;SHT31;56061;51.748;19.620;2022-10-28T07:29:44;10.27;88.92
69006;SHT31;56061;51.748;19.620;2022-10-28T07:32:11;10.32;89.05
69006;SHT31;56061;51.748;19.620;2022-10-28T07:34:38;10.36;88.98
69006;SHT31;56061;51.748;19.620;2022-10-28T07:37:04;10.38;89.02
69006;SHT31;56061;51.748;19.620;2022-10-28T07:39:31;10.44;88.95
69006;SHT31;56061;51.748;19.620;2022-10-28T07:41:57;10.50;88.99
69006;SHT31;56061;51.748;19.620;2022-10-28T07:44:26;10.59;88.97
69006;SHT31;56061;51.748;19.620;2022-10-28T07:46:53;10.70;89.00
69006;SHT31;56061;51.748;19.620;2022-10-28T07:49:23;10.83;88.98
69006;SHT31;56061;51.748;19.620;2022-10-28T07:51:50;10.96;89.04
69006;SHT31;56061;51.748;19.620;2022-10-28T07:54:17;11.10;89.07
69006;SHT31;56061;51.748;19.620;2022-10-28T07:56:43;11.23;89.22
69006;SHT31;56061;51.748;19.620;2022-10-28T07:59:09;11.38;89.24
69006;SHT31;56061;51.748;19.620;2022-10-28T08:01:36;11.53;89.26
69006;SHT31;56061;51.748;19.620;2022-10-28T08:04:03;11.70;89.28
69006;SHT31;56061;51.748;19.620;2022-10-28T08:06:30;11.87;89.40
69006;SHT31;56061;51.748;19.620;2022-10-28T08:08:56;12.02;89.38
69006;SHT31;56061;51.748;19.620;2022-10-28T08:11:23;12.17;89.30
69006;SHT31;56061;51.748;19.620;2022-10-28T08:13:51;12.31;89.20
69006;SHT31;56061;51.748;19.620;2022-10-28T08:16:18;12.43;89.10
69006;SHT31;56061;51.748;19.620;2022-10-28T08:18:44;12.52;89.03
69006;SHT31;56061;51.748;19.620;2022-10-28T08:21:12;12.61;88.96
69006;SHT31;56061;51.748;19.620;2022-10-28T08:23:40;12.68;88.92
69006;SHT31;56061;51.748;19.620;2022-10-28T08:26:12;12.74;88.83
69006;SHT31;56061;51.748;19.620;2022-10-28T08:28:40;12.78;88.65
69006;SHT31;56061;51.748;19.620;2022-10-28T08:31:07;12.81;88.48
69006;SHT31;56061;51.748;19.620;2022-10-28T08:33:35;12.82;88.45
69006;SHT31;56061;51.748;19.620;2022-10-28T08:36:04;12.85;88.39
69006;SHT31;56061;51.748;19.620;2022-10-28T08:38:32;12.88;88.28
69006;SHT31;56061;51.748;19.620;2022-10-28T08:41:14;12.91;88.27
69006;SHT31;56061;51.748;19.620;2022-10-28T08:44:07;12.94;88.22
69006;SHT31;56061;51.748;19.620;2022-10-28T08:47:11;12.95;88.12
69006;SHT31;56061;51.748;19.620;2022-10-28T08:50:03;12.95;88.08
69006;SHT31;56061;51.748;19.620;2022-10-28T08:52:40;12.97;88.07
69006;SHT31;56061;51.748;19.620;2022-10-28T08:55:38;13.04;88.23
69006;SHT31;56061;51.748;19.620;2022-10-28T08:58:12;13.10;88.28
69006;SHT31;56061;51.748;19.620;2022-10-28T09:00:53;13.19;88.37
69006;SHT31;56061;51.748;19.620;2022-10-28T09:03:37;13.29;88.46
69006;SHT31;56061;51.748;19.620;2022-10-28T09:06:09;13.42;88.38
69006;SHT31;56061;51.748;19.620;2022-10-28T09:08:37;13.49;88.21
69006;SHT31;56061;51.748;19.620;2022-10-28T09:17:39;13.73;87.99
69006;SHT31;56061;51.748;19.620;2022-10-28T09:22:55;13.91;87.63
69006;SHT31;56061;51.748;19.620;2022-10-28T09:25:30;14.03;87.58
69006;SHT31;56061;51.748;19.620;2022-10-28T09:28:18;14.14;87.31
69006;SHT31;56061;51.748;19.620;2022-10-28T09:31:29;14.25;87.20
69006;SHT31;56061;51.748;19.620;2022-10-28T09:39:46;14.48;86.32
69006;SHT31;56061;51.748;19.620;2022-10-28T09:42:29;14.53;86.21
69006;SHT31;56061;51.748;19.620;2022-10-28T09:45:11;14.59;86.04
69006;SHT31;56061;51.748;19.620;2022-10-28T09:47:48;14.64;85.95
69006;SHT31;56061;51.748;19.620;2022-10-28T09:50:27;14.70;85.78
69006;SHT31;56061;51.748;19.620;2022-10-28T09:53:20;14.76;85.65
69006;SHT31;56061;51.748;19.620;2022-10-28T09:56:19;14.85;85.71
69006;SHT31;56061;51.748;19.620;2022-10-28T09:58:45;14.93;85.55
69006;SHT31;56061;51.748;19.620;2022-10-28T10:01:14;14.99;85.47
69006;SHT31;56061;51.748;19.620;2022-10-28T10:03:43;15.07;85.22
69006;SHT31;56061;51.748;19.620;2022-10-28T10:06:16;15.16;84.96
69006;SHT31;56061;51.748;19.620;2022-10-28T10:08:48;15.25;84.88
69006;SHT31;56061;51.748;19.620;2022-10-28T10:14:05;15.44;84.61
69006;SHT31;56061;51.748;19.620;2022-10-28T10:19:17;15.62;84.29
69006;SHT31;56061;51.748;19.620;2022-10-28T10:29:36;16.04;83.42
69006;SHT31;56061;51.748;19.620;2022-10-28T10:34:58;16.25;82.70
69006;SHT31;56061;51.748;19.620;2022-10-28T10:37:34;16.34;82.39
69006;SHT31;56061;51.748;19.620;2022-10-28T10:43:20;16.51;82.10
69006;SHT31;56061;51.748;19.620;2022-10-28T10:45:52;16.60;81.83
69006;SHT31;56061;51.748;19.620;2022-10-28T10:48:39;16.69;81.73
69006;SHT31;56061;51.748;19.620;2022-10-28T10:53:37;16.88;81.16
69006;SHT31;56061;51.748;19.620;2022-10-28T10:56:08;16.98;80.81
69006;SHT31;56061;51.748;19.620;2022-10-28T10:58:37;17.07;80.64
69006;SHT31;56061;51.748;19.620;2022-10-28T11:01:14;17.16;80.62
69006;SHT31;56061;51.748;19.620;2022-10-28T11:03:52;17.26;80.56
69006;SHT31;56061;51.748;19.620;2022-10-28T11:06:27;17.35;80.39
69006;SHT31;56061;51.748;19.620;2022-10-28T11:08:58;17.42;80.07
69006;SHT31;56061;51.748;19.620;2022-10-28T11:11:38;17.51;79.80
69006;SHT31;56061;51.748;19.620;2022-10-28T11:16:48;17.67;79.19
69006;SHT31;56061;51.748;19.620;2022-10-28T11:19:22;17.73;78.40
69006;SHT31;56061;51.748;19.620;2022-10-28T11:22:18;17.78;78.24
69006;SHT31;56061;51.748;19.620;2022-10-28T11:33:45;17.99;77.87
69006;SHT31;56061;51.748;19.620;2022-10-28T11:36:22;18.06;77.88
69006;SHT31;56061;51.748;19.620;2022-10-28T11:39:06;18.13;77.42
69006;SHT31;56061;51.748;19.620;2022-10-28T11:44:52;18.25;77.37
69006;SHT31;56061;51.748;19.620;2022-10-28T11:55:52;18.45;76.18
69006;SHT31;56061;51.748;19.620;2022-10-28T11:58:39;18.48;76.04
69006;SHT31;56061;51.748;19.620;2022-10-28T12:03:58;18.60;75.79
69006;SHT31;56061;51.748;19.620;2022-10-28T12:07:23;18.68;75.17
69006;SHT31;56061;51.748;19.620;2022-10-28T12:10:19;18.74;74.73
69006;SHT31;56061;51.748;19.620;2022-10-28T12:13:32;18.77;73.97
69006;SHT31;56061;51.748;19.620;2022-10-28T12:19:04;18.81;73.99
69006;SHT31;56061;51.748;19.620;2022-10-28T12:21:56;18.84;73.94
69006;SHT31;56061;51.748;19.620;2022-10-28T12:24:33;18.88;73.82
69006;SHT31;56061;51.748;19.620;2022-10-28T12:27:23;18.91;73.67
69006;SHT31;56061;51.748;19.620;2022-10-28T12:29:58;18.96;73.68
69006;SHT31;56061;51.748;19.620;2022-10-28T12:32:38;19.04;73.66
69006;SHT31;56061;51.748;19.620;2022-10-28T12:43:33;19.27;73.56
69006;SHT31;56061;51.748;19.620;2022-10-28T12:46:06;19.31;73.35
69006;SHT31;56061;51.748;19.620;2022-10-28T12:49:01;19.32;73.23
69006;SHT31;56061;51.748;19.620;2022-10-28T12:51:36;19.33;73.11
69006;SHT31;56061;51.748;19.620;2022-10-28T12:54:26;19.36;73.14
69006;SHT31;56061;51.748;19.620;2022-10-28T12:57:19;19.40;72.72
69006;SHT31;56061;51.748;19.620;2022-10-28T13:02:53;19.50;72.17
69006;SHT31;56061;51.748;19.620;2022-10-28T13:05:28;19.54;72.12
69006;SHT31;56061;51.748;19.620;2022-10-28T13:08:18;19.58;72.27
69006;SHT31;56061;51.748;19.620;2022-10-28T13:17:23;19.71;71.95
69006;SHT31;56061;51.748;19.620;2022-10-28T13:28:51;19.81;71.33
69006;SHT31;56061;51.748;19.620;2022-10-28T13:31:21;19.84;71.36
69006;SHT31;56061;51.748;19.620;2022-10-28T13:33:53;19.88;71.25
69006;SHT31;56061;51.748;19.620;2022-10-28T13:36:25;19.90;71.16
69006;SHT31;56061;51.748;19.620;2022-10-28T13:38:59;19.91;71.03
69006;SHT31;56061;51.748;19.620;2022-10-28T13:41:31;19.89;70.87
69006;SHT31;56061;51.748;19.620;2022-10-28T13:53:34;19.78;70.86
69006;SHT31;56061;51.748;19.620;2022-10-28T13:55:55;19.77;71.29
69006;SHT31;56061;51.748;19.620;2022-10-28T13:58:23;19.76;71.29
69006;SHT31;56061;51.748;19.620;2022-10-28T14:00:51;19.74;71.14
69006;SHT31;56061;51.748;19.620;2022-10-28T14:03:25;19.75;71.18
69006;SHT31;56061;51.748;19.620;2022-10-28T14:05:55;19.75;71.28
69006;SHT31;56061;51.748;19.620;2022-10-28T14:08:36;19.80;71.11
69006;SHT31;56061;51.748;19.620;2022-10-28T14:11:06;19.85;70.71
69006;SHT31;56061;51.748;19.620;2022-10-28T14:13:39;19.88;70.82
69006;SHT31;56061;51.748;19.620;2022-10-28T14:16:25;19.93;70.85
69006;SHT31;56061;51.748;19.620;2022-10-28T14:19:03;19.98;70.84
69006;SHT31;56061;51.748;19.620;2022-10-28T14:21:45;20.00;70.78
69006;SHT31;56061;51.748;19.620;2022-10-28T14:24:37;20.01;70.71
69006;SHT31;56061;51.748;19.620;2022-10-28T14:35:01;19.88;70.77
69006;SHT31;56061;51.748;19.620;2022-10-28T14:50:05;19.32;71.80
69006;SHT31;56061;51.748;19.620;2022-10-28T14:52:42;19.19;72.07
69006;SHT31;56061;51.748;19.620;2022-10-28T14:55:45;19.08;72.27
69006;SHT31;56061;51.748;19.620;2022-10-28T15:03:31;18.72;73.02
69006;SHT31;56061;51.748;19.620;2022-10-28T15:06:01;18.58;73.29
69006;SHT31;56061;51.748;19.620;2022-10-28T15:08:48;18.45;73.58
69006;SHT31;56061;51.748;19.620;2022-10-28T15:11:15;18.34;73.86
69006;SHT31;56061;51.748;19.620;2022-10-28T15:13:43;18.24;74.03
69006;SHT31;56061;51.748;19.620;2022-10-28T15:16:20;18.17;74.13
69006;SHT31;56061;51.748;19.620;2022-10-28T15:18:49;18.11;74.25
69006;SHT31;56061;51.748;19.620;2022-10-28T15:21:19;18.05;74.41
69006;SHT31;56061;51.748;19.620;2022-10-28T15:23:57;18.01;74.57
69006;SHT31;56061;51.748;19.620;2022-10-28T15:26:25;17.91;74.63
69006;SHT31;56061;51.748;19.620;2022-10-28T15:28:52;17.82;74.82
69006;SHT31;56061;51.748;19.620;2022-10-28T15:31:20;17.74;74.99
69006;SHT31;56061;51.748;19.620;2022-10-28T15:33:47;17.64;75.14
69006;SHT31;56061;51.748;19.620;2022-10-28T15:36:20;17.56;75.27
69006;SHT31;56061;51.748;19.620;2022-10-28T15:38:50;17.49;75.41
69006;SHT31;56061;51.748;19.620;2022-10-28T15:47:06;17.31;76.03
69006;SHT31;56061;51.748;19.620;2022-10-28T15:49:56;17.25;76.24
69006;SHT31;56061;51.748;19.620;2022-10-28T15:52:44;17.19;76.44
69006;SHT31;56061;51.748;19.620;2022-10-28T15:57:45;17.12;76.80
69006;SHT31;56061;51.748;19.620;2022-10-28T16:02:54;17.08;77.12
69006;SHT31;56061;51.748;19.620;2022-10-28T16:08:24;17.05;77.34
69006;SHT31;56061;51.748;19.620;2022-10-28T16:11:03;17.01;77.48
69006;SHT31;56061;51.748;19.620;2022-10-28T16:13:40;16.94;77.65
69006;SHT31;56061;51.748;19.620;2022-10-28T16:16:23;16.89;77.74
69006;SHT31;56061;51.748;19.620;2022-10-28T16:19:00;16.85;77.86
69006;SHT31;56061;51.748;19.620;2022-10-28T16:21:33;16.82;77.97
69006;SHT31;56061;51.748;19.620;2022-10-28T16:24:02;16.78;78.04
69006;SHT31;56061;51.748;19.620;2022-10-28T16:26:29;16.76;78.09
69006;SHT31;56061;51.748;19.620;2022-10-28T16:28:58;16.71;78.18
69006;SHT31;56061;51.748;19.620;2022-10-28T16:31:25;16.66;78.24
69006;SHT31;56061;51.748;19.620;2022-10-28T16:33:56;16.62;78.38
69006;SHT31;56061;51.748;19.620;2022-10-28T16:36:25;16.57;78.53
69006;SHT31;56061;51.748;19.620;2022-10-28T16:38:53;16.54;78.63
69006;SHT31;56061;51.748;19.620;2022-10-28T16:41:19;16.51;78.72
69006;SHT31;56061;51.748;19.620;2022-10-28T16:43:46;16.49;78.86
69006;SHT31;56061;51.748;19.620;2022-10-28T16:46:12;16.48;78.92
69006;SHT31;56061;51.748;19.620;2022-10-28T16:48:39;16.47;79.00
69006;SHT31;56061;51.748;19.620;2022-10-28T16:51:11;16.46;79.02
69006;SHT31;56061;51.748;19.620;2022-10-28T16:53:41;16.43;79.10
69006;SHT31;56061;51.748;19.620;2022-10-28T16:56:13;16.40;79.17
69006;SHT31;56061;51.748;19.620;2022-10-28T16:58:41;16.35;79.27
69006;SHT31;56061;51.748;19.620;2022-10-28T17:01:08;16.31;79.39
69006;SHT31;56061;51.748;19.620;2022-10-28T17:03:36;16.28;79.47
69006;SHT31;56061;51.748;19.620;2022-10-28T17:06:02;16.26;79.56
69006;SHT31;56061;51.748;19.620;2022-10-28T17:08:29;16.24;79.70
69006;SHT31;56061;51.748;19.620;2022-10-28T17:11:15;16.23;79.79
69006;SHT31;56061;51.748;19.620;2022-10-28T17:13:42;16.22;79.83
69006;SHT31;56061;51.748;19.620;2022-10-28T17:16:08;16.20;79.84
69006;SHT31;56061;51.748;19.620;2022-10-28T17:18:35;16.15;79.93
69006;SHT31;56061;51.748;19.620;2022-10-28T17:21:02;16.10;80.00
69006;SHT31;56061;51.748;19.620;2022-10-28T17:23:29;16.06;80.07
69006;SHT31;56061;51.748;19.620;2022-10-28T17:25:56;16.01;80.17
69006;SHT31;56061;51.748;19.620;2022-10-28T17:28:27;15.97;80.28
69006;SHT31;56061;51.748;19.620;2022-10-28T17:31:00;15.93;80.30
69006;SHT31;56061;51.748;19.620;2022-10-28T17:33:29;15.90;80.42
69006;SHT31;56061;51.748;19.620;2022-10-28T17:35:59;15.86;80.52
69006;SHT31;56061;51.748;19.620;2022-10-28T17:38:31;15.82;80.60
69006;SHT31;56061;51.748;19.620;2022-10-28T17:40:57;15.80;80.68
69006;SHT31;56061;51.748;19.620;2022-10-28T17:43:24;15.78;80.77
69006;SHT31;56061;51.748;19.620;2022-10-28T17:45:50;15.77;80.82
69006;SHT31;56061;51.748;19.620;2022-10-28T17:48:17;15.78;80.89
69006;SHT31;56061;51.748;19.620;2022-10-28T17:50:43;15.79;80.91
69006;SHT31;56061;51.748;19.620;2022-10-28T17:53:10;15.81;80.91
69006;SHT31;56061;51.748;19.620;2022-10-28T17:55:36;15.82;80.89
69006;SHT31;56061;51.748;19.620;2022-10-28T17:58:03;15.81;80.88
69006;SHT31;56061;51.748;19.620;2022-10-28T18:00:30;15.80;80.87
69006;SHT31;56061;51.748;19.620;2022-10-28T18:02:56;15.78;80.90
69006;SHT31;56061;51.748;19.620;2022-10-28T18:05:23;15.77;80.90
69006;SHT31;56061;51.748;19.620;2022-10-28T18:07:52;15.74;80.90
69006;SHT31;56061;51.748;19.620;2022-10-28T18:10:20;15.73;80.89
69006;SHT31;56061;51.748;19.620;2022-10-28T18:12:48;15.73;80.90
69006;SHT31;56061;51.748;19.620;2022-10-28T18:15:16;15.73;80.90
69006;SHT31;56061;51.748;19.620;2022-10-28T18:17:47;15.72;80.85
69006;SHT31;56061;51.748;19.620;2022-10-28T18:20:15;15.69;80.88
69006;SHT31;56061;51.748;19.620;2022-10-28T18:22:42;15.64;80.90
69006;SHT31;56061;51.748;19.620;2022-10-28T18:25:08;15.60;80.93
69006;SHT31;56061;51.748;19.620;2022-10-28T18:27:35;15.55;81.00
69006;SHT31;56061;51.748;19.620;2022-10-28T18:30:02;15.51;81.10
69006;SHT31;56061;51.748;19.620;2022-10-28T18:32:29;15.48;81.18
69006;SHT31;56061;51.748;19.620;2022-10-28T18:34:55;15.45;81.24
69006;SHT31;56061;51.748;19.620;2022-10-28T18:37:22;15.41;81.28
69006;SHT31;56061;51.748;19.620;2022-10-28T18:39:48;15.37;81.35
69006;SHT31;56061;51.748;19.620;2022-10-28T18:42:14;15.34;81.42
69006;SHT31;56061;51.748;19.620;2022-10-28T18:44:47;15.28;81.55
69006;SHT31;56061;51.748;19.620;2022-10-28T18:47:13;15.23;81.59
69006;SHT31;56061;51.748;19.620;2022-10-28T18:49:39;15.19;81.67
69006;SHT31;56061;51.748;19.620;2022-10-28T18:52:06;15.16;81.77
69006;SHT31;56061;51.748;19.620;2022-10-28T18:54:33;15.16;81.86
69006;SHT31;56061;51.748;19.620;2022-10-28T18:56:59;15.15;81.94